createdAt,value
2022-08-03T00:01:49.413Z,101132.41
2022-08-03T00:04:16.044Z,101135.78
2022-08-03T00:06:42.945Z,101130.91
2022-08-03T00:09:09.683Z,101131.19
2022-08-03T00:11:36.689Z,101131.38
2022-08-03T00:14:04.651Z,101124.31
2022-08-03T00:16:31.278Z,101117.06
2022-08-03T00:18:57.992Z,101117.00
2022-08-03T00:21:27.871Z,101117.66
2022-08-03T00:23:54.502Z,101115.56
2022-08-03T00:26:21.429Z,101117.56
2022-08-03T00:28:48.629Z,101125.22
2022-08-03T00:31:15.410Z,101120.50
2022-08-03T00:33:58.221Z,101110.19
2022-08-03T00:36:27.873Z,101113.41
2022-08-03T00:38:55.058Z,101117.28
2022-08-03T00:41:21.958Z,101116.28
2022-08-03T00:43:48.639Z,101110.78
2022-08-03T00:46:20.613Z,101109.09
2022-08-03T00:48:50.158Z,101110.09
2022-08-03T00:51:16.849Z,101105.72
2022-08-03T00:53:43.621Z,101104.56
2022-08-03T00:56:16.854Z,101101.88
2022-08-03T00:58:47.106Z,101111.22
2022-08-03T01:01:14.989Z,101102.81
2022-08-03T01:03:41.652Z,101101.59
2022-08-03T01:06:20.012Z,101101.22
2022-08-03T01:09:08.459Z,101100.09
2022-08-03T01:12:01.003Z,101105.81
2022-08-03T01:14:44.306Z,101096.53
2022-08-03T01:17:16.847Z,101093.25
2022-08-03T01:19:52.851Z,101091.88
2022-08-03T01:22:42.404Z,101092.91
2022-08-03T01:25:36.437Z,101091.59
2022-08-03T01:28:40.837Z,101096.13
2022-08-03T01:31:10.374Z,101097.03
2022-08-03T01:33:43.624Z,101102.88
2022-08-03T01:36:14.416Z,101093.97
2022-08-03T01:38:53.908Z,101090.44
2022-08-03T01:41:25.073Z,101097.66
2022-08-03T01:44:27.213Z,101100.34
2022-08-03T01:46:47.479Z,101092.28
2022-08-03T01:49:15.245Z,101105.69
2022-08-03T01:51:56.646Z,101098.97
2022-08-03T01:54:33.205Z,101098.81
2022-08-03T01:56:59.846Z,101091.22
2022-08-03T01:59:29.511Z,101091.56
2022-08-03T02:02:28.812Z,101085.81
2022-08-03T02:04:46.958Z,101086.69
2022-08-03T02:07:15.295Z,101085.53
2022-08-03T02:09:45.094Z,101089.03
2022-08-03T02:12:14.085Z,101088.56
2022-08-03T02:14:43.451Z,101089.59
2022-08-03T02:17:12.370Z,101084.69
2022-08-03T02:19:40.640Z,101082.22
2022-08-03T02:22:11.980Z,101085.44
2022-08-03T02:24:38.955Z,101089.91
2022-08-03T02:27:18.823Z,101091.47
2022-08-03T02:29:50.006Z,101094.69
2022-08-03T02:32:20.437Z,101096.13
2022-08-03T02:34:50.736Z,101094.75
2022-08-03T02:37:19.831Z,101091.22
2022-08-03T02:39:47.787Z,101084.31
2022-08-03T02:42:17.236Z,101082.91
2022-08-03T02:44:48.578Z,101086.13
2022-08-03T02:47:17.135Z,101089.00
2022-08-03T02:49:50.405Z,101077.91
2022-08-03T02:52:19.840Z,101081.09
2022-08-03T02:54:48.704Z,101074.09
2022-08-03T02:57:16.455Z,101078.25
2022-08-03T02:59:44.545Z,101085.19
2022-08-03T03:02:12.429Z,101082.81
2022-08-03T03:04:56.211Z,101085.75
2022-08-03T03:07:28.859Z,101088.72
2022-08-03T03:09:58.432Z,101081.84
2022-08-03T03:12:26.440Z,101084.19
2022-08-03T03:14:53.181Z,101080.28
2022-08-03T03:17:21.504Z,101086.44
2022-08-03T03:19:51.063Z,101094.06
2022-08-03T03:22:18.935Z,101092.34
2022-08-03T03:24:47.866Z,101089.41
2022-08-03T03:27:16.771Z,101094.59
2022-08-03T03:29:44.466Z,101090.94
2022-08-03T03:32:11.143Z,101090.97
2022-08-03T03:34:38.142Z,101086.31
2022-08-03T03:37:05.270Z,101087.06
2022-08-03T03:39:32.055Z,101088.34
2022-08-03T03:42:00.777Z,101094.38
2022-08-03T03:44:31.604Z,101096.66
2022-08-03T03:46:58.631Z,101092.97
2022-08-03T03:49:26.701Z,101095.28
2022-08-03T03:51:54.884Z,101097.81
2022-08-03T03:54:21.780Z,101096.09
2022-08-03T03:56:52.312Z,101095.84
2022-08-03T03:59:18.993Z,101092.75
2022-08-03T04:01:45.851Z,101096.97
2022-08-03T04:04:31.110Z,101098.22
2022-08-03T04:07:16.517Z,101095.31
2022-08-03T04:10:14.457Z,101094.31
2022-08-03T04:12:50.312Z,101095.31
2022-08-03T04:15:19.369Z,101094.59
2022-08-03T04:17:47.783Z,101093.09
2022-08-03T04:20:15.770Z,101100.69
2022-08-03T04:22:42.702Z,101088.88
2022-08-03T04:25:14.187Z,101097.31
2022-08-03T04:27:42.117Z,101101.56
2022-08-03T04:30:09.609Z,101101.41
2022-08-03T04:32:41.885Z,101100.69
2022-08-03T04:35:12.215Z,101106.34
2022-08-03T04:37:43.191Z,101109.16
2022-08-03T04:40:14.761Z,101106.63
2022-08-03T04:42:43.338Z,101100.00
2022-08-03T04:45:13.117Z,101095.09
2022-08-03T04:47:40.285Z,101103.94
2022-08-03T04:50:12.473Z,101095.47
2022-08-03T04:52:40.652Z,101099.03
2022-08-03T04:55:07.710Z,101112.78
2022-08-03T04:57:34.339Z,101110.81
2022-08-03T05:00:03.573Z,101105.91
2022-08-03T05:02:31.923Z,101110.28
2022-08-03T05:04:59.201Z,101109.41
2022-08-03T05:07:25.831Z,101109.25
2022-08-03T05:10:01.580Z,101114.72
2022-08-03T05:12:32.926Z,101109.97
2022-08-03T05:15:00.323Z,101113.06
2022-08-03T05:17:27.323Z,101115.47
2022-08-03T05:19:54.877Z,101114.03
2022-08-03T05:22:22.748Z,101115.63
2022-08-03T05:24:49.694Z,101124.88
2022-08-03T05:27:22.282Z,101115.47
2022-08-03T05:29:50.711Z,101118.56
2022-08-03T05:32:18.671Z,101125.75
2022-08-03T05:34:45.675Z,101113.94
2022-08-03T05:37:12.424Z,101113.78
2022-08-03T05:39:39.060Z,101127.13
2022-08-03T05:42:05.825Z,101115.69
2022-08-03T05:44:32.459Z,101119.03
2022-08-03T05:46:59.531Z,101110.16
2022-08-03T05:49:26.245Z,101107.81
2022-08-03T05:52:00.021Z,101120.34
2022-08-03T05:54:56.031Z,101111.28
2022-08-03T05:57:22.332Z,101114.69
2022-08-03T05:59:57.754Z,101110.19
2022-08-03T06:02:28.626Z,101104.84
2022-08-03T06:04:55.247Z,101113.50
2022-08-03T06:07:22.073Z,101117.34
2022-08-03T06:10:37.209Z,101117.22
2022-08-03T06:12:36.235Z,101119.50
2022-08-03T06:15:04.909Z,101121.63
2022-08-03T06:17:37.364Z,101112.53
2022-08-03T06:20:05.864Z,101114.19
2022-08-03T06:22:32.770Z,101124.03
2022-08-03T06:25:03.683Z,101119.22
2022-08-03T06:27:36.595Z,101116.84
2022-08-03T06:30:05.731Z,101121.69
2022-08-03T06:32:32.400Z,101120.75
2022-08-03T06:34:59.405Z,101135.63
2022-08-03T06:37:27.131Z,101137.53
2022-08-03T06:39:54.219Z,101123.34
2022-08-03T06:42:20.906Z,101123.41
2022-08-03T06:44:49.556Z,101130.00
2022-08-03T06:47:16.237Z,101129.34
2022-08-03T06:49:42.956Z,101130.19
2022-08-03T06:52:09.580Z,101128.88
2022-08-03T06:54:36.425Z,101126.56
2022-08-03T06:57:03.700Z,101127.50
2022-08-03T07:00:07.338Z,101124.13
2022-08-03T07:02:19.549Z,101132.22
2022-08-03T07:04:47.949Z,101126.16
2022-08-03T07:07:14.563Z,101134.44
2022-08-03T07:09:41.730Z,101126.25
2022-08-03T07:12:08.668Z,101127.56
2022-08-03T07:14:35.220Z,101130.72
2022-08-03T07:17:01.847Z,101136.97
2022-08-03T07:19:37.975Z,101141.66
2022-08-03T07:22:04.733Z,101139.69
2022-08-03T07:24:31.337Z,101141.72
2022-08-03T07:26:57.991Z,101138.66
2022-08-03T07:29:25.037Z,101143.38
2022-08-03T07:31:51.732Z,101143.38
2022-08-03T07:34:18.625Z,101144.91
2022-08-03T07:36:45.334Z,101150.13
2022-08-03T07:39:16.656Z,101148.56
2022-08-03T07:41:44.699Z,101153.78
2022-08-03T07:44:11.311Z,101151.25
2022-08-03T07:46:38.000Z,101149.16
2022-08-03T07:49:05.262Z,101146.50
2022-08-03T07:51:31.929Z,101142.94
2022-08-03T07:53:59.094Z,101147.16
2022-08-03T07:56:25.841Z,101148.31
2022-08-03T07:58:53.235Z,101145.59
2022-08-03T08:01:20.071Z,101143.94
2022-08-03T08:03:53.269Z,101138.63
2022-08-03T08:06:21.193Z,101138.31
2022-08-03T08:08:48.585Z,101135.44
2022-08-03T08:11:15.334Z,101136.63
2022-08-03T08:13:42.083Z,101132.53
2022-08-03T08:16:08.773Z,101132.41
2022-08-03T08:18:35.372Z,101135.50
2022-08-03T08:21:03.398Z,101137.03
2022-08-03T08:23:42.700Z,101139.34
2022-08-03T08:26:11.251Z,101132.66
2022-08-03T08:28:37.884Z,101137.84
2022-08-03T08:31:04.556Z,101139.88
2022-08-03T08:34:02.636Z,101140.09
2022-08-03T08:36:18.148Z,101133.97
2022-08-03T08:38:45.302Z,101134.94
2022-08-03T08:41:13.844Z,101129.72
2022-08-03T08:43:41.891Z,101130.22
2022-08-03T08:46:12.546Z,101128.63
2022-08-03T08:48:46.389Z,101132.34
2022-08-03T08:51:13.854Z,101135.78
2022-08-03T08:53:46.690Z,101133.94
2022-08-03T08:56:17.674Z,101137.56
2022-08-03T08:58:51.263Z,101132.34
2022-08-03T09:01:19.969Z,101128.44
2022-08-03T09:03:47.267Z,101131.88
2022-08-03T09:06:15.027Z,101132.53
2022-08-03T09:08:41.943Z,101127.28
2022-08-03T09:11:08.816Z,101125.63
2022-08-03T09:13:38.910Z,101122.38
2022-08-03T09:16:15.615Z,101127.47
2022-08-03T09:18:44.574Z,101125.84
2022-08-03T09:21:33.962Z,101126.91
2022-08-03T09:24:06.212Z,101125.69
2022-08-03T09:26:36.104Z,101126.50
2022-08-03T09:29:15.212Z,101122.59
2022-08-03T09:31:46.838Z,101121.66
2022-08-03T09:34:17.866Z,101127.34
2022-08-03T09:36:46.192Z,101119.22
2022-08-03T09:39:15.699Z,101127.09
2022-08-03T09:41:45.100Z,101129.72
2022-08-03T09:44:24.079Z,101126.69
2022-08-03T09:46:56.510Z,101123.19
2022-08-03T09:49:24.251Z,101121.91
2022-08-03T09:52:38.346Z,101122.81
2022-08-03T09:54:38.936Z,101113.41
2022-08-03T09:57:05.528Z,101122.34
2022-08-03T09:59:33.601Z,101123.00
2022-08-03T10:02:00.864Z,101128.53
2022-08-03T10:04:27.921Z,101120.59
2022-08-03T10:07:09.458Z,101119.56
2022-08-03T10:09:37.506Z,101122.34
2022-08-03T10:12:09.285Z,101114.34
2022-08-03T10:14:38.890Z,101117.38
2022-08-03T10:17:06.797Z,101112.75
2022-08-03T10:19:33.888Z,101113.97
2022-08-03T10:22:14.283Z,101107.25
2022-08-03T10:24:49.856Z,101104.94
2022-08-03T10:27:18.710Z,101101.47
2022-08-03T10:29:48.952Z,101099.53
2022-08-03T10:32:39.327Z,101098.50
2022-08-03T10:35:19.942Z,101096.81
2022-08-03T10:37:57.135Z,101092.28
2022-08-03T10:40:46.828Z,101083.53
2022-08-03T10:43:18.629Z,101090.63
2022-08-03T10:45:46.603Z,101084.41
2022-08-03T10:48:14.344Z,101083.34
2022-08-03T10:50:43.384Z,101094.25
2022-08-03T10:53:10.303Z,101077.03
2022-08-03T10:55:58.994Z,101085.16
2022-08-03T10:58:38.034Z,101080.75
2022-08-03T11:01:59.902Z,101072.47
2022-08-03T11:04:29.531Z,101065.56
2022-08-03T11:07:15.582Z,101065.56
2022-08-03T11:09:43.932Z,101066.19
2022-08-03T11:12:29.904Z,101066.63
2022-08-03T11:15:07.545Z,101060.59
2022-08-03T11:17:46.270Z,101054.31
2022-08-03T11:20:52.145Z,101049.13
2022-08-03T11:24:02.869Z,101057.66
2022-08-03T11:26:26.025Z,101057.66
2022-08-03T11:28:52.647Z,101050.75
2022-08-03T11:31:39.582Z,101054.72
2022-08-03T11:34:10.988Z,101049.72
2022-08-03T11:37:15.526Z,101047.84
2022-08-03T11:39:45.404Z,101049.31
2022-08-03T11:42:24.332Z,101049.94
2022-08-03T11:44:56.140Z,101046.78
2022-08-03T11:47:24.340Z,101048.69
2022-08-03T11:49:54.002Z,101051.84
2022-08-03T11:52:27.555Z,101042.84
2022-08-03T11:54:57.013Z,101048.88
2022-08-03T11:59:01.719Z,101042.00
2022-08-03T12:00:32.574Z,101049.91
2022-08-03T12:03:12.015Z,101052.00
2022-08-03T12:05:51.394Z,101041.78
2022-08-03T12:08:28.142Z,101045.31
2022-08-03T12:10:57.025Z,101046.59
2022-08-03T12:14:45.122Z,101046.38
2022-08-03T12:16:18.989Z,101042.59
2022-08-03T12:18:46.387Z,101043.84
2022-08-03T12:21:13.133Z,101033.00
2022-08-03T12:23:39.843Z,101032.38
2022-08-03T12:26:09.745Z,101030.91
2022-08-03T12:28:38.399Z,101030.81
2022-08-03T12:31:11.802Z,101023.84
2022-08-03T12:34:04.967Z,101027.97
2022-08-03T12:36:34.366Z,101022.66
2022-08-03T12:39:04.042Z,101016.28
2022-08-03T12:41:39.233Z,101016.31
2022-08-03T12:44:06.341Z,101017.63
2022-08-03T12:46:36.889Z,101028.31
2022-08-03T12:49:18.758Z,101022.44
2022-08-03T12:51:45.512Z,101020.06
2022-08-03T12:54:24.404Z,101019.81
2022-08-03T12:57:05.596Z,101030.06
2022-08-03T12:59:40.441Z,101028.63
2022-08-03T13:02:28.696Z,101028.38
2022-08-03T13:04:55.944Z,101020.06
2022-08-03T13:07:23.365Z,101020.69
2022-08-03T13:09:56.286Z,101020.22
2022-08-03T13:12:25.181Z,101027.16
2022-08-03T13:14:54.861Z,101014.28
2022-08-03T13:17:21.813Z,101018.47
2022-08-03T13:19:49.760Z,101014.28
2022-08-03T13:22:21.325Z,101005.72
2022-08-03T13:24:50.387Z,101007.38
2022-08-03T13:28:01.233Z,101006.13
2022-08-03T13:30:04.944Z,101005.06
2022-08-03T13:32:31.551Z,101013.59
2022-08-03T13:34:58.229Z,101011.28
2022-08-03T13:37:25.637Z,101009.41
2022-08-03T13:39:58.727Z,101006.63
2022-08-03T13:42:31.878Z,101014.78
2022-08-03T13:44:59.757Z,100996.13
2022-08-03T13:47:27.441Z,101004.06
2022-08-03T13:50:01.485Z,100997.56
2022-08-03T13:52:34.107Z,100997.75
2022-08-03T13:55:01.973Z,100987.31
2022-08-03T13:58:02.613Z,100990.47
2022-08-03T14:00:27.024Z,100992.75
2022-08-03T14:03:16.083Z,100985.66
2022-08-03T14:05:43.997Z,100985.88
2022-08-03T14:08:11.719Z,100981.69
2022-08-03T14:10:41.980Z,100985.41
2022-08-03T14:13:17.388Z,100981.44
2022-08-03T14:15:50.958Z,100970.53
2022-08-03T14:18:28.248Z,100971.53
2022-08-03T14:21:00.795Z,100972.41
2022-08-03T14:23:32.387Z,100967.38
2022-08-03T14:25:59.656Z,100976.13
2022-08-03T14:28:26.270Z,100969.34
2022-08-03T14:30:54.543Z,100962.66
2022-08-03T14:33:21.539Z,100963.81
2022-08-03T14:35:48.909Z,100953.75
2022-08-03T14:38:15.946Z,100945.00
2022-08-03T14:40:43.374Z,100953.88
2022-08-03T14:43:10.007Z,100947.59
2022-08-03T14:45:36.700Z,100954.06
2022-08-03T14:50:29.293Z,100949.44
2022-08-03T14:50:52.849Z,100939.72
2022-08-03T14:53:20.064Z,100942.97
2022-08-03T14:55:50.354Z,100949.50
2022-08-03T14:58:20.079Z,100946.81
2022-08-03T15:00:48.079Z,100950.88
2022-08-03T15:03:15.890Z,100944.69
2022-08-03T15:05:43.828Z,100940.91
2022-08-03T15:08:10.418Z,100938.78
2022-08-03T15:10:44.180Z,100938.06
2022-08-03T15:13:15.141Z,100927.25
2022-08-03T15:15:42.009Z,100933.47
2022-08-03T15:18:08.959Z,100929.94
2022-08-03T15:20:44.299Z,100937.91
2022-08-03T15:23:12.907Z,100929.53
2022-08-03T15:26:32.314Z,100927.66
2022-08-03T15:28:26.018Z,100928.56
2022-08-03T15:30:53.142Z,100919.94
2022-08-03T15:33:20.106Z,100916.94
2022-08-03T15:35:47.519Z,100921.03
2022-08-03T15:38:14.257Z,100916.06
2022-08-03T15:40:40.994Z,100918.31
2022-08-03T15:43:08.089Z,100922.25
2022-08-03T15:45:36.076Z,100921.81
2022-08-03T15:48:05.022Z,100914.13
2022-08-03T15:50:31.948Z,100918.38
2022-08-03T15:52:58.578Z,100916.81
2022-08-03T15:55:25.348Z,100919.41
2022-08-03T15:59:03.267Z,100911.69
2022-08-03T16:00:39.532Z,100919.22
2022-08-03T16:03:06.327Z,100907.53
2022-08-03T16:05:33.014Z,100910.84
2022-08-03T16:08:04.314Z,100908.19
2022-08-03T16:10:32.622Z,100904.88
2022-08-03T16:13:00.204Z,100902.97
2022-08-03T16:15:27.350Z,100903.41
2022-08-03T16:17:54.035Z,100906.31
2022-08-03T16:20:29.269Z,100902.91
2022-08-03T16:23:10.574Z,100907.41
2022-08-03T16:25:44.309Z,100908.03
2022-08-03T16:28:17.306Z,100896.72
2022-08-03T16:30:45.796Z,100900.06
2022-08-03T16:33:16.722Z,100901.53
2022-08-03T16:35:46.127Z,100895.94
2022-08-03T16:38:18.590Z,100893.44
2022-08-03T16:40:47.066Z,100888.44
2022-08-03T16:43:18.267Z,100896.19
2022-08-03T16:45:46.978Z,100900.34
2022-08-03T16:48:15.254Z,100898.47
2022-08-03T16:50:42.111Z,100891.38
2022-08-03T16:53:15.584Z,100896.19
2022-08-03T16:55:52.333Z,100887.88
2022-08-03T16:58:41.322Z,100883.78
2022-08-03T17:01:22.055Z,100886.50
2022-08-03T17:04:02.283Z,100883.97
2022-08-03T17:06:35.354Z,100890.84
2022-08-03T17:09:13.351Z,100887.09
2022-08-03T17:11:46.925Z,100886.44
2022-08-03T17:14:21.803Z,100878.75
2022-08-03T17:16:52.517Z,100887.53
2022-08-03T17:19:24.959Z,100882.00
2022-08-03T17:21:59.970Z,100882.84
2022-08-03T17:24:41.330Z,100879.59
2022-08-03T17:28:41.795Z,100882.56
2022-08-03T17:30:17.461Z,100877.19
2022-08-03T17:32:57.910Z,100879.63
2022-08-03T17:35:34.667Z,100880.38
2022-08-03T17:38:06.633Z,100883.94
2022-08-03T17:40:35.820Z,100875.00
2022-08-03T17:43:44.509Z,100880.66
2022-08-03T17:45:52.921Z,100872.31
2022-08-03T17:48:25.104Z,100878.59
2022-08-03T17:50:59.461Z,100887.97
2022-08-03T17:53:34.094Z,100885.88
2022-08-03T17:56:42.696Z,100883.78
2022-08-03T17:59:15.734Z,100888.13
2022-08-03T18:02:19.947Z,100888.34
2022-08-03T18:05:16.588Z,100882.09
2022-08-03T18:08:01.545Z,100886.94
2022-08-03T18:10:34.727Z,100881.91
2022-08-03T18:13:14.842Z,100883.00
2022-08-03T18:15:54.303Z,100880.75
2022-08-03T18:18:32.722Z,100883.72
2022-08-03T18:21:06.524Z,100889.16
2022-08-03T18:23:37.732Z,100886.69
2022-08-03T18:26:12.398Z,100881.06
2022-08-03T18:28:39.235Z,100887.75
2022-08-03T18:31:07.530Z,100879.81
2022-08-03T18:34:17.078Z,100888.63
2022-08-03T18:36:30.127Z,100886.28
2022-08-03T18:39:02.393Z,100891.50
2022-08-03T18:41:32.148Z,100892.56
2022-08-03T18:44:09.067Z,100889.59
2022-08-03T18:47:07.442Z,100886.53
2022-08-03T18:49:52.079Z,100888.63
2022-08-03T18:52:33.744Z,100889.28
2022-08-03T18:55:33.462Z,100874.69
2022-08-03T18:58:08.431Z,100887.00
2022-08-03T19:00:54.718Z,100885.16
2022-08-03T19:03:25.477Z,100882.25
2022-08-03T19:06:20.314Z,100881.03
2022-08-03T19:08:55.680Z,100884.75
2022-08-03T19:11:27.795Z,100878.06
2022-08-03T19:13:59.345Z,100890.59
2022-08-03T19:16:35.699Z,100893.53
2022-08-03T19:21:59.431Z,100881.44
2022-08-03T19:24:26.856Z,100896.25
2022-08-03T19:26:55.945Z,100905.19
2022-08-03T19:29:25.055Z,100900.84
2022-08-03T19:32:15.081Z,100893.13
2022-08-03T19:34:45.988Z,100898.94
2022-08-03T19:37:15.338Z,100904.16
2022-08-03T19:39:43.595Z,100904.16
2022-08-03T19:45:14.375Z,100907.50
2022-08-03T19:48:10.128Z,100912.28
2022-08-03T19:50:37.884Z,100905.78
2022-08-03T19:53:12.894Z,100904.78
2022-08-03T19:55:46.436Z,100900.56
2022-08-03T19:58:17.744Z,100910.56
2022-08-03T20:00:55.620Z,100911.19
2022-08-03T20:03:24.855Z,100912.84
2022-08-03T20:05:54.148Z,100897.81
2022-08-03T20:08:22.187Z,100896.97
2022-08-03T20:10:49.587Z,100902.34
2022-08-03T20:16:05.943Z,100903.78
2022-08-03T20:21:25.321Z,100908.78
2022-08-03T20:24:02.007Z,100909.41
2022-08-03T20:26:32.057Z,100910.22
2022-08-03T20:29:10.000Z,100917.06
2022-08-03T20:31:39.527Z,100915.34
2022-08-03T20:34:07.052Z,100906.19
2022-08-03T20:36:35.772Z,100909.72
2022-08-03T20:39:07.674Z,100911.72
2022-08-03T20:41:36.144Z,100916.13
2022-08-03T20:44:04.403Z,100911.22
2022-08-03T20:46:46.505Z,100917.47
2022-08-03T20:49:23.422Z,100903.94
2022-08-03T20:51:53.179Z,100909.72
2022-08-03T20:54:29.460Z,100904.50
2022-08-03T20:57:04.439Z,100903.06
2022-08-03T20:59:50.368Z,100898.06
2022-08-03T21:02:28.794Z,100901.78
2022-08-03T21:04:59.407Z,100897.59
2022-08-03T21:07:45.641Z,100900.41
2022-08-03T21:10:21.869Z,100894.31
2022-08-03T21:13:01.993Z,100888.53
2022-08-03T21:13:02.803Z,100900.19
2022-08-03T21:13:03.679Z,100900.06
2022-08-03T21:13:03.878Z,100898.38
2022-08-03T21:13:16.195Z,100894.50
2022-08-03T21:19:37.290Z,100894.81
2022-08-03T21:22:22.564Z,100896.69
2022-08-03T21:24:55.776Z,100895.59
2022-08-03T21:27:24.567Z,100892.25
2022-08-03T21:29:53.308Z,100895.78
2022-08-03T21:32:32.567Z,100888.31
2022-08-03T21:35:01.318Z,100884.00
2022-08-03T21:37:31.951Z,100884.34
2022-08-03T21:39:58.601Z,100888.44
2022-08-03T21:42:25.400Z,100885.09
2022-08-03T21:44:52.997Z,100892.00
2022-08-03T21:47:22.714Z,100883.25
2022-08-03T21:50:08.846Z,100880.38
2022-08-03T21:52:43.309Z,100887.00
2022-08-03T21:55:18.490Z,100886.94
2022-08-03T21:57:53.400Z,100884.69
2022-08-03T22:00:23.064Z,100889.06
2022-08-03T22:02:56.077Z,100888.72
2022-08-03T22:05:42.946Z,100888.34
2022-08-03T22:08:13.304Z,100893.19
2022-08-03T22:10:43.489Z,100891.81
2022-08-03T22:14:17.567Z,100882.81
2022-08-03T22:16:45.024Z,100888.41
2022-08-03T22:19:11.581Z,100878.75
2022-08-03T22:21:39.780Z,100873.56
2022-08-03T22:24:07.354Z,100892.78
2022-08-03T22:26:35.970Z,100891.59
2022-08-03T22:29:06.913Z,100885.88
2022-08-03T22:31:58.776Z,100888.47
2022-08-03T22:34:26.732Z,100884.88
2022-08-03T22:36:57.247Z,100892.31
2022-08-03T22:39:28.835Z,100895.38
2022-08-03T22:41:58.898Z,100889.50
2022-08-03T22:44:27.236Z,100890.28
2022-08-03T22:46:55.040Z,100895.00
2022-08-03T22:49:22.289Z,100889.56
2022-08-03T22:51:51.643Z,100890.56
2022-08-03T22:54:18.582Z,100886.00
2022-08-03T22:56:46.770Z,100885.56
2022-08-03T22:59:40.976Z,100887.59
2022-08-03T23:02:19.957Z,100883.69
2022-08-03T23:04:56.714Z,100881.47
2022-08-03T23:07:34.939Z,100887.22
2022-08-03T23:10:04.701Z,100885.91
2022-08-03T23:12:37.215Z,100879.31
2022-08-03T23:15:07.291Z,100877.47
2022-08-03T23:17:58.296Z,100882.41
2022-08-03T23:24:39.971Z,100874.59
2022-08-03T23:27:08.854Z,100867.50
2022-08-03T23:29:37.308Z,100868.16
2022-08-03T23:32:05.645Z,100869.66
2022-08-03T23:34:52.639Z,100869.38
2022-08-03T23:37:20.389Z,100868.66
2022-08-03T23:43:54.492Z,100866.97
2022-08-03T23:46:25.884Z,100865.81
2022-08-03T23:48:53.869Z,100868.44
2022-08-03T23:51:35.549Z,100867.03
2022-08-03T23:54:47.339Z,100867.16
2022-08-03T23:57:38.886Z,100868.25
